Time;durP1;ratioP1;P1;durP2;ratioP2;P2;SDS_P1;SDS_P2;PMS_P1;PMS_P2;Temp;Humidity;BMP_temperature;BMP_pressure;BME280_temperature;BME280_humidity;BME280_pressure;Samples;Min_cycle;Max_cycle;Signal;HPM_P1;HPM_P2
2022/06/22 00:01:58;;;;;;;10.35;5.80;;;14.80;99.90;14.90;97067.00;;;;4981334;28;87496;-58
2022/06/22 00:04:33;;;;;;;8.38;5.60;;;14.80;99.90;14.90;97076.00;;;;4983006;28;87552;-59
2022/06/22 00:07:21;;;;;;;10.65;5.85;;;14.80;99.90;14.90;97072.00;;;;4982925;28;87360;-58
2022/06/22 00:09:57;;;;;;;9.70;5.82;;;14.80;99.90;15.00;97072.00;;;;4965375;28;87160;-59
2022/06/22 00:12:28;;;;;;;9.35;5.55;;;14.90;99.90;15.00;97075.00;;;;4969083;28;87031;-59
2022/06/22 00:15:00;;;;;;;12.82;6.30;;;14.90;99.90;15.00;97078.00;;;;4982823;28;87777;-58
2022/06/22 00:17:37;;;;;;;14.00;7.15;;;14.90;99.90;15.00;97068.00;;;;4984187;28;87314;-58
2022/06/22 00:20:25;;;;;;;13.45;6.15;;;14.90;99.90;15.00;97072.00;;;;4965746;28;87091;-58
2022/06/22 00:22:57;;;;;;;11.40;7.22;;;14.90;99.90;15.00;97078.00;;;;4981304;28;87097;-58
2022/06/22 00:25:37;;;;;;;10.50;6.80;;;14.90;99.90;15.00;97083.00;;;;4979686;28;88571;-58
2022/06/22 00:28:50;;;;;;;11.32;6.75;;;14.90;99.90;15.00;97074.00;;;;4982238;28;90391;-58
2022/06/22 00:31:29;;;;;;;12.27;7.38;;;14.90;99.90;15.00;97076.00;;;;4980006;28;87093;-59
2022/06/22 00:34:11;;;;;;;13.63;8.00;;;14.90;99.90;15.00;97077.00;;;;4981673;28;86948;-59
2022/06/22 00:37:15;;;;;;;13.25;7.65;;;14.90;99.90;14.90;97068.00;;;;4980148;28;87696;-59
2022/06/22 00:39:54;;;;;;;12.60;7.85;;;14.90;99.90;14.90;97074.00;;;;4974819;28;87725;-59
2022/06/22 00:42:44;;;;;;;16.98;8.20;;;14.80;99.90;14.90;97072.00;;;;4982954;28;87035;-58
2022/06/22 00:45:23;;;;;;;15.52;8.65;;;14.80;99.90;14.80;97078.00;;;;4983062;28;86303;-58
2022/06/22 00:48:04;;;;;;;13.40;8.73;;;14.80;99.90;14.80;97078.00;;;;4982861;28;87938;-58
2022/06/22 00:51:06;;;;;;;16.17;8.20;;;14.80;99.90;14.80;97079.00;;;;4982720;28;87637;-58
2022/06/22 00:54:00;;;;;;;;;;;14.80;99.90;14.80;97085.00;;;;4978435;28;87969;-58
2022/06/22 00:56:51;;;;;;;16.80;9.50;;;14.80;99.90;14.90;97086.00;;;;4958848;28;87032;-58
2022/06/22 00:59:44;;;;;;;17.80;10.23;;;14.80;99.90;14.90;97089.00;;;;4981668;28;87715;-58
2022/06/22 01:02:43;;;;;;;18.30;10.18;;;14.70;99.90;14.80;97100.00;;;;4964148;28;88894;-58
2022/06/22 01:05:24;;;;;;;17.23;10.68;;;14.70;99.90;14.80;97092.00;;;;4947392;28;87016;-58
2022/06/22 01:08:08;;;;;;;22.30;10.55;;;14.70;99.90;14.80;97097.00;;;;4964971;28;87070;-59
2022/06/22 01:10:52;;;;;;;17.52;10.57;;;14.70;99.90;14.80;97095.00;;;;4981857;28;87893;-58
2022/06/22 01:13:32;;;;;;;13.85;9.60;;;14.70;99.90;14.80;97103.00;;;;4978107;28;87404;-58
2022/06/22 01:16:09;;;;;;;17.77;10.05;;;14.70;99.90;14.80;97103.00;;;;4976481;28;86999;-58
2022/06/22 01:18:44;;;;;;;18.40;10.10;;;14.70;99.90;14.80;97098.00;;;;4982047;28;86888;-59
2022/06/22 01:21:24;;;;;;;18.05;10.40;;;14.70;99.90;14.80;97102.00;;;;4981290;28;88758;-58
2022/06/22 01:24:20;;;;;;;15.27;9.98;;;14.70;99.90;14.80;97115.00;;;;4968950;28;88616;-58
2022/06/22 01:27:19;;;;;;;15.35;10.07;;;14.70;99.90;14.80;97096.00;;;;4978229;28;87387;-58
2022/06/22 01:29:52;;;;;;;17.75;10.05;;;14.70;99.90;14.80;97109.00;;;;4977682;28;86925;-58
2022/06/22 01:32:28;;;;;;;24.60;10.73;;;14.70;99.90;14.80;97095.00;;;;4981536;28;86941;-58
2022/06/22 01:35:02;;;;;;;19.25;10.55;;;14.70;99.90;14.80;97113.00;;;;4963898;28;88582;-58
2022/06/22 01:37:32;;;;;;;20.48;10.75;;;14.70;99.90;14.80;97098.00;;;;4981507;28;86958;-58
2022/06/22 01:40:24;;;;;;;17.70;10.38;;;14.70;99.90;14.90;97104.00;;;;4981514;28;86243;-58
2022/06/22 01:43:06;;;;;;;20.50;10.32;;;14.80;99.90;14.90;97109.00;;;;4978607;28;87731;-58
2022/06/22 01:45:47;;;;;;;19.02;11.40;;;14.80;99.90;14.90;97115.00;;;;4947338;28;87510;-59
2022/06/22 01:49:01;;;;;;;18.20;10.43;;;14.80;99.90;14.80;97119.00;;;;4980753;28;88034;-58
2022/06/22 01:51:41;;;;;;;12.98;9.18;;;14.80;99.90;14.90;97105.00;;;;4980027;28;87828;-58
2022/06/22 01:54:30;;;;;;;14.57;9.77;;;14.70;99.90;14.90;97114.00;;;;4974587;28;87031;-58
2022/06/22 01:57:06;;;;;;;13.38;9.02;;;14.80;99.90;14.80;97121.00;;;;4967901;28;87810;-58
2022/06/22 01:59:42;;;;;;;12.13;8.73;;;14.80;99.90;14.80;97119.00;;;;4963201;28;87191;-58
2022/06/22 02:02:16;;;;;;;14.45;8.52;;;14.70;99.90;14.80;97115.00;;;;4981228;28;87096;-58
2022/06/22 02:05:30;;;;;;;13.60;8.25;;;14.70;99.90;14.80;97117.00;;;;4981361;28;87909;-58
2022/06/22 02:08:37;;;;;;;15.70;7.95;;;14.70;99.90;14.80;97124.00;;;;4956404;28;87384;-58
2022/06/22 02:11:19;;;;;;;12.60;7.70;;;14.70;99.90;14.70;97101.00;;;;4972350;28;88099;-58
2022/06/22 02:13:53;;;;;;;17.42;7.93;;;14.60;99.90;14.70;97107.00;;;;4963694;28;86958;-58
2022/06/22 02:16:37;;;;;;;12.93;8.13;;;14.60;99.90;14.60;97113.00;;;;4977159;28;88735;-58
2022/06/22 02:19:03;;;;;;;12.77;7.47;;;14.50;99.90;14.50;97118.00;;;;4979370;28;88389;-58
2022/06/22 02:21:42;;;;;;;16.33;8.25;;;14.50;99.90;14.50;97120.00;;;;4981390;28;87022;-58
2022/06/22 02:24:28;;;;;;;10.95;7.47;;;14.50;99.90;14.50;97118.00;;;;4980670;28;87001;-58
2022/06/22 02:27:00;;;;;;;13.13;7.30;;;14.40;99.90;14.50;97121.00;;;;4981115;28;87688;-58
2022/06/22 02:29:35;;;;;;;10.48;7.72;;;14.40;99.90;14.40;97118.00;;;;4980657;28;88779;-58
2022/06/22 02:32:06;;;;;;;10.75;6.90;;;14.40;99.90;14.50;97127.00;;;;4963797;28;86980;-58
2022/06/22 02:34:34;;;;;;;12.07;6.75;;;14.40;99.90;14.50;97126.00;;;;4964237;28;86478;-58
2022/06/22 02:37:06;;;;;;;10.05;6.85;;;14.40;99.90;14.50;97127.00;;;;4980588;28;87721;-58
2022/06/22 02:39:37;;;;;;;9.10;6.22;;;14.40;99.90;14.50;97121.00;;;;4963009;28;88808;-58
2022/06/22 02:44:51;;;;;;;8.10;5.97;;;14.40;99.90;14.50;97126.00;;;;4979872;28;87010;-58
2022/06/22 02:47:26;;;;;;;11.25;5.80;;;14.40;99.90;14.50;97124.00;;;;4980314;28;87669;-58
2022/06/22 02:50:18;;;;;;;9.73;5.75;;;14.40;99.90;14.50;97122.00;;;;4977427;28;87403;-58
2022/06/22 02:52:56;;;;;;;11.35;6.00;;;14.40;99.90;14.50;97119.00;;;;4966017;28;87223;-58
2022/06/22 02:55:27;;;;;;;7.70;5.43;;;14.40;99.90;14.50;97125.00;;;;4963938;28;87823;-58
2022/06/22 02:57:53;;;;;;;8.20;5.18;;;14.40;99.90;14.50;97125.00;;;;4963203;28;87834;-58
2022/06/22 03:00:41;;;;;;;10.15;5.25;;;14.40;99.90;14.50;97115.00;;;;4980762;28;87305;-58
2022/06/22 03:03:14;;;;;;;9.55;5.53;;;14.40;99.90;14.50;97119.00;;;;4980209;28;88122;-58
2022/06/22 03:05:45;;;;;;;7.90;5.28;;;14.40;99.90;14.50;97122.00;;;;4980838;28;87740;-58
2022/06/22 03:08:12;;;;;;;12.00;5.50;;;14.40;99.90;14.60;97118.00;;;;4980045;28;89180;-58
2022/06/22 03:10:48;;;;;;;6.45;4.68;;;14.50;99.90;14.60;97123.00;;;;4963125;28;88255;-58
2022/06/22 03:13:37;;;;;;;6.60;4.75;;;14.40;99.90;14.70;97128.00;;;;4963422;28;87541;-57
2022/06/22 03:16:04;;;;;;;7.80;4.65;;;14.50;99.90;14.70;97137.00;;;;4949324;28;87326;-56
2022/06/22 03:18:35;;;;;;;6.75;4.20;;;14.50;99.90;14.70;97128.00;;;;4962799;28;87755;-57
2022/06/22 03:21:07;;;;;;;7.97;4.57;;;14.60;99.90;14.80;97130.00;;;;4977051;28;88272;-57
2022/06/22 03:23:49;;;;;;;5.68;4.03;;;14.60;99.90;14.80;97127.00;;;;4980586;28;88021;-57
2022/06/22 03:26:20;;;;;;;6.25;4.20;;;14.60;99.90;14.80;97133.00;;;;4980183;28;86191;-55
2022/06/22 03:29:30;;;;;;;6.90;4.70;;;14.70;99.90;14.80;97146.00;;;;4980511;28;87831;-58
2022/06/22 03:32:19;;;;;;;6.47;4.07;;;14.70;99.90;14.90;97141.00;;;;4982000;28;87459;-57
2022/06/22 03:34:51;;;;;;;6.93;4.03;;;14.70;99.90;14.90;97149.00;;;;4966070;28;88483;-58
2022/06/22 03:37:24;;;;;;;;;;;14.70;99.90;14.80;97153.00;;;;4970220;28;88190;-58
2022/06/22 03:40:01;;;;;;;8.68;4.28;;;14.70;99.90;14.80;97153.00;;;;4983310;28;87732;-58
2022/06/22 03:42:42;;;;;;;8.15;4.47;;;14.60;99.90;14.70;97150.00;;;;4965598;28;87582;-57
2022/06/22 03:45:21;;;;;;;10.40;5.00;;;14.60;99.90;14.60;97153.00;;;;4976014;28;86976;-57
2022/06/22 03:48:11;;;;;;;5.78;4.60;;;14.50;99.90;14.60;97166.00;;;;4968250;28;87552;-57
2022/06/22 03:51:00;;;;;;;9.73;5.05;;;14.50;99.90;14.50;97172.00;;;;4965918;28;87589;-57
2022/06/22 03:53:41;;;;;;;6.13;4.57;;;14.50;99.90;14.40;97155.00;;;;4983494;28;87325;-55
2022/06/22 03:56:20;;;;;;;8.75;4.38;;;14.40;99.90;14.40;97175.00;;;;4981816;28;87083;-58
2022/06/22 03:58:50;;;;;;;5.88;4.45;;;14.30;99.90;14.30;97164.00;;;;4965441;28;87569;-57
2022/06/22 04:01:19;;;;;;;6.90;4.65;;;14.30;99.90;14.30;97178.00;;;;4981876;28;88710;-58
2022/06/22 04:03:45;;;;;;;10.18;5.00;;;14.30;99.90;14.30;97179.00;;;;4979012;28;88296;-57
2022/06/22 04:06:31;;;;;;;7.10;4.68;;;14.30;99.90;14.30;97168.00;;;;4965469;28;87012;-59
2022/06/22 04:09:00;;;;;;;10.05;4.90;;;14.30;99.90;14.30;97164.00;;;;4962784;28;87006;-59
2022/06/22 04:11:32;;;;;;;9.88;5.43;;;14.20;99.90;14.20;97174.00;;;;4973414;28;87781;-57
2022/06/22 04:14:27;;;;;;;9.35;5.40;;;14.20;99.90;14.30;97163.00;;;;4981580;28;87512;-57
2022/06/22 04:17:00;;;;;;;8.68;5.05;;;14.20;99.90;14.30;97168.00;;;;4948793;28;87058;-60
2022/06/22 04:19:42;;;;;;;9.73;5.78;;;14.30;99.90;14.40;97177.00;;;;4965668;28;86164;-58
2022/06/22 04:22:24;;;;;;;10.10;5.55;;;14.30;99.90;14.40;97187.00;;;;4976475;28;88234;-58
2022/06/22 04:25:31;;;;;;;8.68;4.82;;;14.30;99.90;14.40;97183.00;;;;4964256;28;88568;-57
2022/06/22 04:28:02;;;;;;;5.63;4.63;;;14.30;99.90;14.40;97176.00;;;;4944334;28;88003;-57
2022/06/22 04:30:41;;;;;;;6.93;4.88;;;14.30;99.90;14.40;97186.00;;;;4965167;28;87027;-58
2022/06/22 04:33:40;;;;;;;7.40;4.90;;;14.30;99.90;14.40;97191.00;;;;4965476;28;87778;-58
2022/06/22 04:36:44;;;;;;;8.45;4.68;;;14.40;99.90;14.40;97195.00;;;;4952644;28;87395;-57
2022/06/22 04:39:31;;;;;;;7.55;4.93;;;14.40;99.90;14.50;97193.00;;;;4981952;28;87083;-57
2022/06/22 04:42:03;;;;;;;7.38;5.40;;;14.40;99.90;14.50;97200.00;;;;4965465;28;87108;-59
2022/06/22 04:44:36;;;;;;;6.70;4.97;;;14.40;99.90;14.50;97200.00;;;;4981377;28;88871;-59
2022/06/22 04:47:24;;;;;;;7.32;4.78;;;14.50;99.90;14.50;97207.00;;;;4982904;28;88093;-59
2022/06/22 04:50:20;;;;;;;9.82;5.72;;;14.40;99.90;14.50;97195.00;;;;4975811;28;86958;-59
2022/06/22 04:52:50;;;;;;;10.32;5.30;;;14.50;99.90;14.60;97207.00;;;;4963352;28;87397;-58
2022/06/22 04:55:23;;;;;;;9.38;5.15;;;14.50;99.90;14.70;97195.00;;;;4981197;28;89589;-58
2022/06/22 04:57:57;;;;;;;10.95;6.13;;;14.70;99.90;14.90;97207.00;;;;4964903;28;88367;-58
2022/06/22 05:00:31;;;;;;;9.95;6.03;;;14.90;99.90;15.00;97208.00;;;;4967616;28;86988;-58
2022/06/22 05:03:15;;;;;;;8.88;5.63;;;14.90;99.90;15.10;97207.00;;;;4965082;28;87544;-58
2022/06/22 05:05:41;;;;;;;7.30;5.38;;;15.00;99.90;15.10;97217.00;;;;4965007;28;87856;-58
2022/06/22 05:08:23;;;;;;;9.38;5.65;;;15.00;99.90;15.20;97208.00;;;;4981110;28;87406;-58
2022/06/22 05:11:26;;;;;;;8.57;5.93;;;15.10;99.90;15.30;97214.00;;;;4963861;28;86946;-58
2022/06/22 05:13:56;;;;;;;7.90;5.60;;;15.20;99.90;15.40;97210.00;;;;4971771;28;86331;-58
2022/06/22 05:16:31;;;;;;;9.20;5.40;;;15.40;99.90;15.60;97211.00;;;;4979390;28;87690;-57
2022/06/22 05:18:58;;;;;;;7.72;5.53;;;15.50;99.90;15.60;97202.00;;;;4963378;28;87355;-58
2022/06/22 05:21:33;;;;;;;10.02;4.90;;;15.50;99.90;15.70;97213.00;;;;4963308;28;88372;-58
2022/06/22 05:24:05;;;;;;;7.97;5.13;;;15.60;99.90;15.80;97227.00;;;;4981466;28;87067;-58
2022/06/22 05:26:33;;;;;;;6.85;5.47;;;15.70;99.90;15.90;97220.00;;;;4982190;28;87470;-58
2022/06/22 05:29:06;;;;;;;9.98;5.57;;;15.70;99.90;15.90;97235.00;;;;4975700;28;89796;-57
2022/06/22 05:31:39;;;;;;;9.23;5.22;;;15.80;99.90;15.70;97225.00;;;;4947851;28;87024;-57
2022/06/22 05:34:14;;;;;;;8.07;4.88;;;15.60;99.90;15.80;97220.00;;;;4981144;28;87060;-57
2022/06/22 05:36:50;;;;;;;7.97;5.13;;;15.60;99.90;15.80;97237.00;;;;4981349;28;87666;-58
2022/06/22 05:39:16;;;;;;;6.55;4.90;;;15.60;99.90;15.80;97231.00;;;;4964122;28;87441;-58
2022/06/22 05:41:46;;;;;;;8.20;4.85;;;15.60;99.90;16.00;97226.00;;;;4980424;28;86981;-57
2022/06/22 05:44:17;;;;;;;7.80;4.78;;;15.80;99.90;16.00;97240.00;;;;4979806;28;87138;-58
2022/06/22 05:46:52;;;;;;;;;;;15.80;99.90;16.20;97255.00;;;;4962954;28;88710;-60
2022/06/22 05:49:22;;;;;;;11.18;4.97;;;16.00;99.90;16.10;97247.00;;;;4963882;28;87770;-59
2022/06/22 05:51:55;;;;;;;8.35;4.43;;;15.90;99.90;16.20;97243.00;;;;4967139;28;87049;-60
2022/06/22 05:54:32;;;;;;;6.50;4.80;;;15.90;99.90;16.20;97245.00;;;;4973154;28;88091;-55
2022/06/22 05:57:13;;;;;;;7.80;4.90;;;16.00;99.90;16.10;97239.00;;;;4977723;28;87840;-54
2022/06/22 05:59:58;;;;;;;6.87;4.93;;;15.90;99.90;16.20;97243.00;;;;4973792;28;87264;-53
2022/06/22 06:02:37;;;;;;;10.68;5.03;;;15.90;99.90;16.20;97227.00;;;;4963254;28;87519;-60
2022/06/22 06:05:27;;;;;;;10.23;5.65;;;15.90;99.90;16.30;97240.00;;;;4964298;28;86655;-61
2022/06/22 06:07:58;;;;;;;8.85;4.80;;;16.00;99.90;16.30;97256.00;;;;4976941;28;87890;-60
2022/06/22 06:10:36;;;;;;;5.93;4.43;;;16.10;99.90;16.30;97258.00;;;;4980828;28;88420;-61
2022/06/22 06:13:29;;;;;;;8.05;4.50;;;16.20;99.90;16.30;97258.00;;;;4968467;28;87985;-60
2022/06/22 06:15:59;;;;;;;7.10;4.90;;;16.10;99.90;16.20;97275.00;;;;4972159;28;87285;-60
2022/06/22 06:18:31;;;;;;;8.83;4.37;;;16.00;99.90;16.30;97269.00;;;;4979966;28;87504;-60
2022/06/22 06:21:20;;;;;;;9.50;4.32;;;16.10;99.90;16.40;97274.00;;;;4973484;28;87694;-60
2022/06/22 06:24:00;;;;;;;10.02;4.40;;;16.20;99.90;16.60;97266.00;;;;4978384;28;87645;-60
2022/06/22 06:29:48;;;;;;;8.50;4.47;;;16.40;99.90;16.60;97280.00;;;;4964282;28;87710;-60
2022/06/22 06:32:44;;;;;;;9.07;4.30;;;16.50;99.90;16.70;97278.00;;;;4945166;28;87319;-61
2022/06/22 06:35:28;;;;;;;6.47;4.32;;;16.50;99.90;16.40;97284.00;;;;4963748;28;87521;-60
2022/06/22 06:38:29;;;;;;;6.30;4.53;;;16.40;99.90;16.50;97271.00;;;;4980571;28;86928;-61
2022/06/22 06:41:15;;;;;;;11.55;4.60;;;16.40;99.90;16.60;97274.00;;;;4974557;28;88543;-61
2022/06/22 06:44:00;;;;;;;7.15;4.50;;;16.40;99.90;16.60;97270.00;;;;4978241;28;89271;-61
2022/06/22 06:46:51;;;;;;;11.52;4.40;;;16.40;99.90;16.70;97272.00;;;;4980376;28;87453;-60
2022/06/22 06:49:48;;;;;;;9.20;4.20;;;16.50;99.90;16.90;97275.00;;;;4963054;28;87013;-60
2022/06/22 06:52:31;;;;;;;8.70;3.88;;;16.70;99.90;17.00;97271.00;;;;4968749;28;87861;-60
2022/06/22 06:55:18;;;;;;;6.32;4.18;;;16.80;99.90;17.20;97275.00;;;;4979893;28;88150;-60
2022/06/22 06:58:13;;;;;;;8.18;4.90;;;16.90;99.90;17.20;97286.00;;;;4978714;28;87377;-54
2022/06/22 07:00:41;;;;;;;10.18;4.25;;;17.00;99.90;17.20;97288.00;;;;4978612;28;86274;-56
2022/06/22 07:03:17;;;;;;;9.07;5.07;;;16.90;99.90;17.10;97284.00;;;;4980583;28;87944;-56
2022/06/22 07:05:44;;;;;;;9.68;4.70;;;16.80;99.90;17.00;97293.00;;;;4980420;28;88209;-58
2022/06/22 07:08:26;;;;;;;5.15;4.00;;;16.80;99.90;17.00;97291.00;;;;4983534;28;88010;-58
2022/06/22 07:11:31;;;;;;;10.45;4.53;;;16.80;99.90;17.10;97285.00;;;;4982900;28;87010;-59
2022/06/22 07:14:27;;;;;;;5.45;3.90;;;16.80;99.90;17.20;97280.00;;;;4952179;28;87577;-60
2022/06/22 07:16:59;;;;;;;9.45;4.18;;;17.00;99.90;17.10;97302.00;;;;4974740;28;87488;-58
2022/06/22 07:19:45;;;;;;;6.03;3.95;;;16.90;99.90;17.20;97297.00;;;;4966246;28;87614;-58
2022/06/22 07:22:25;;;;;;;9.88;4.70;;;17.10;99.90;17.30;97315.00;;;;4981113;28;87566;-62
2022/06/22 07:25:27;;;;;;;11.53;4.50;;;17.10;99.90;17.40;97310.00;;;;4964678;28;87801;-60
2022/06/22 07:28:05;;;;;;;7.53;3.97;;;17.20;99.90;17.80;97309.00;;;;4977071;28;86669;-60
2022/06/22 07:30:36;;;;;;;10.30;4.50;;;17.70;99.90;18.10;97309.00;;;;4966311;28;87003;-57
2022/06/22 07:33:18;;;;;;;8.32;4.00;;;17.90;99.90;18.10;97316.00;;;;4983180;28;86941;-57
2022/06/22 07:36:10;;;;;;;5.82;3.40;;;17.90;99.90;18.20;97313.00;;;;4976616;28;88652;-58
2022/06/22 07:38:56;;;;;;;;;;;18.00;99.90;18.50;97310.00;;;;4983409;28;88262;-57
2022/06/22 07:41:24;;;;;;;6.38;3.88;;;18.20;99.90;18.50;97337.00;;;;4979626;28;87045;-57
2022/06/22 07:44:13;;;;;;;7.80;4.47;;;18.20;99.90;18.30;97327.00;;;;4982518;28;87555;-57
2022/06/22 07:47:03;;;;;;;6.38;3.95;;;18.10;99.90;18.40;97349.00;;;;4949831;28;88072;-58
2022/06/22 07:49:39;;;;;;;7.07;3.80;;;18.20;99.90;18.20;97339.00;;;;4983092;28;87402;-56
2022/06/22 07:52:13;;;;;;;6.15;3.55;;;17.90;99.90;18.40;97342.00;;;;4953099;28;87547;-57
2022/06/22 07:54:47;;;;;;;7.40;3.95;;;18.20;99.90;18.60;97343.00;;;;4983415;28;86193;-58
2022/06/22 07:57:32;;;;;;;5.97;3.70;;;18.30;99.90;18.50;97362.00;;;;4979253;28;87690;-58
2022/06/22 08:00:18;;;;;;;7.30;3.72;;;18.20;99.90;18.30;97342.00;;;;4975144;28;87343;-57
2022/06/22 08:02:45;;;;;;;6.10;3.40;;;18.00;99.90;18.40;97355.00;;;;4981499;28;88264;-56
2022/06/22 08:05:18;;;;;;;6.85;3.63;;;18.10;99.90;18.60;97357.00;;;;4982278;28;87411;-57
2022/06/22 08:08:17;;;;;;;5.10;3.55;;;18.30;99.90;18.90;97333.00;;;;4959353;28;88622;-57
2022/06/22 08:10:51;;;;;;;6.63;3.80;;;18.50;99.90;19.20;97344.00;;;;4944313;28;88324;-56
2022/06/22 08:13:24;;;;;;;6.95;3.28;;;18.80;99.90;19.10;97346.00;;;;4948933;28;86973;-56
2022/06/22 08:16:05;;;;;;;5.82;2.97;;;18.80;99.90;19.30;97333.00;;;;4982487;28;86995;-58
2022/06/22 08:18:32;;;;;;;9.38;3.28;;;18.90;99.90;19.40;97333.00;;;;4978827;28;87553;-57
2022/06/22 08:20:59;;;;;;;7.97;3.15;;;19.00;99.90;19.50;97347.00;;;;4981574;28;87222;-56
2022/06/22 08:23:31;;;;;;;3.95;3.00;;;19.20;99.90;19.50;97338.00;;;;4982349;28;87369;-57
2022/06/22 08:26:00;;;;;;;6.00;2.88;;;19.20;99.90;19.60;97359.00;;;;4965287;28;87056;-57
2022/06/22 08:28:29;;;;;;;6.07;2.97;;;19.20;99.90;19.70;97365.00;;;;4981714;28;88629;-56
2022/06/22 08:30:59;;;;;;;4.68;3.03;;;19.30;99.90;19.50;97362.00;;;;4964761;28;88267;-56
2022/06/22 08:33:45;;;;;;;7.95;2.53;;;19.10;99.90;19.50;97363.00;;;;4981772;28;86950;-57
2022/06/22 08:36:44;;;;;;;5.07;3.00;;;19.00;99.90;19.10;97362.00;;;;4981592;28;87756;-56
2022/06/22 08:39:27;;;;;;;6.65;3.30;;;18.80;99.90;19.20;97378.00;;;;4961252;28;87460;-57
2022/06/22 08:42:32;;;;;;;4.32;2.75;;;18.80;99.90;19.00;97364.00;;;;4962276;28;87340;-57
2022/06/22 08:45:14;;;;;;;6.65;2.58;;;18.60;99.90;19.00;97364.00;;;;4964935;28;87853;-57
2022/06/22 08:47:58;;;;;;;8.80;2.70;;;18.70;99.90;19.00;97355.00;;;;4977388;28;86972;-57
2022/06/22 08:51:16;;;;;;;7.78;3.45;;;18.70;99.90;19.30;97348.00;;;;4981422;28;87762;-55
2022/06/22 08:53:51;;;;;;;4.28;3.03;;;19.00;99.90;19.60;97358.00;;;;4980324;28;87388;-57
2022/06/22 08:56:38;;;;;;;5.38;3.13;;;19.40;99.90;19.70;97364.00;;;;4977471;28;88020;-56
2022/06/22 08:59:49;;;;;;;9.27;3.15;;;19.50;99.90;20.10;97358.00;;;;4962798;28;87007;-57
2022/06/22 09:02:41;;;;;;;7.57;2.70;;;19.70;99.90;20.50;97370.00;;;;4963396;28;89767;-57
2022/06/22 09:05:22;;;;;;;11.30;2.97;;;20.10;99.90;20.40;97377.00;;;;4978648;28;87335;-55
2022/06/22 09:08:36;;;;;;;5.60;2.53;;;20.00;99.90;20.30;97378.00;;;;4979449;28;86914;-58
2022/06/22 09:11:29;;;;;;;5.60;2.25;;;19.90;99.90;19.80;97375.00;;;;4909466;28;87529;-57
2022/06/22 09:14:37;;;;;;;5.05;2.95;;;19.50;99.90;19.90;97403.00;;;;4911948;28;87617;-54
2022/06/22 09:17:35;;;;;;;4.78;2.15;;;19.60;99.90;19.70;97373.00;;;;4979256;28;87380;-57
2022/06/22 09:20:45;;;;;;;4.40;2.40;;;19.40;99.90;19.70;97387.00;;;;4979622;28;87086;-55
2022/06/22 09:24:04;;;;;;;4.47;2.17;;;19.50;99.90;19.90;97394.00;;;;4973220;28;88828;-55
2022/06/22 09:27:02;;;;;;;4.30;2.22;;;19.70;99.90;20.00;97389.00;;;;4918603;28;90288;-56
2022/06/22 09:30:15;;;;;;;6.50;2.50;;;19.70;99.90;20.20;97392.00;;;;4980721;28;87997;-57
2022/06/22 09:33:08;;;;;;;5.93;3.10;;;19.90;99.90;20.60;97358.00;;;;4980229;28;86942;-53
2022/06/22 09:35:37;;;;;;;4.05;2.30;;;20.40;99.90;21.00;97373.00;;;;4977779;28;87207;-55
2022/06/22 09:38:54;;;;;;;4.20;2.80;;;20.70;99.90;21.10;97365.00;;;;4980980;28;87870;-56
2022/06/22 09:41:49;;;;;;;4.10;2.70;;;20.80;99.90;21.00;97373.00;;;;4980269;28;87863;-54
2022/06/22 09:44:45;;;;;;;4.13;2.30;;;20.80;99.90;21.20;97375.00;;;;4971953;28;87131;-58
2022/06/22 09:47:44;;;;;;;4.82;2.22;;;20.90;99.90;21.20;97393.00;;;;4974418;28;86440;-55
2022/06/22 09:50:45;;;;;;;6.07;2.50;;;20.90;99.90;21.20;97401.00;;;;4978927;28;87730;-57
2022/06/22 09:57:25;;;;;;;4.88;2.13;;;20.80;99.90;21.60;97381.00;;;;4911295;28;88123;-61
2022/06/22 10:00:20;;;;;;;3.38;2.05;;;21.10;99.90;21.40;97377.00;;;;4981045;28;86923;-61
2022/06/22 10:03:35;;;;;;;3.65;1.55;;;21.00;99.90;21.50;97377.00;;;;4943729;28;89953;-54
2022/06/22 10:06:25;;;;;;;7.43;1.80;;;21.10;99.90;21.40;97386.00;;;;4980867;28;87358;-56
2022/06/22 10:09:15;;;;;;;5.32;1.75;;;20.90;99.90;21.20;97387.00;;;;4947183;28;86961;-56
2022/06/22 10:12:15;;;;;;;5.40;1.75;;;20.90;99.90;21.10;97409.00;;;;4963828;28;87056;-54
2022/06/22 10:15:00;;;;;;;6.72;1.88;;;20.60;99.90;20.90;97412.00;;;;4980959;28;87810;-56
2022/06/22 10:17:53;;;;;;;2.47;1.67;;;20.50;99.90;20.60;97404.00;;;;4981760;28;87129;-54
2022/06/22 10:20:45;;;;;;;3.67;1.90;;;20.30;99.90;20.60;97415.00;;;;4979968;28;87988;-52
2022/06/22 10:23:52;;;;;;;2.38;1.60;;;20.20;99.90;20.70;97435.00;;;;4962558;28;87436;-52
2022/06/22 10:26:35;;;;;;;5.75;1.90;;;20.40;99.90;20.90;97421.00;;;;4962445;28;88689;-52
2022/06/22 10:29:01;;;;;;;8.02;1.92;;;20.60;99.90;21.00;97426.00;;;;4980476;28;87461;-55
2022/06/22 10:31:41;;;;;;;2.05;1.63;;;20.60;99.90;20.80;97442.00;;;;4980498;28;87661;-58
2022/06/22 10:34:31;;;;;;;3.38;1.80;;;20.40;99.90;20.70;97420.00;;;;4981101;28;87292;-55
2022/06/22 10:37:35;;;;;;;5.72;2.22;;;20.30;99.90;20.40;97418.00;;;;4981364;28;86860;-54
2022/06/22 10:46:37;;;;;;;6.28;2.85;;;19.90;99.90;20.20;97442.00;;;;4970078;28;86347;-57
2022/06/22 10:49:33;;;;;;;6.13;1.73;;;19.80;99.90;20.10;97424.00;;;;4984609;28;87038;-56
2022/06/22 10:52:24;;;;;;;4.18;1.95;;;19.80;99.90;20.20;97440.00;;;;4983824;28;87195;-56
2022/06/22 10:55:16;;;;;;;2.10;1.70;;;19.90;99.90;20.00;97452.00;;;;4965924;28;87955;-54
2022/06/22 10:58:14;;;;;;;2.83;1.63;;;19.70;99.90;19.80;97441.00;;;;4968251;28;86996;-55
2022/06/22 11:01:16;;;;;;;7.75;1.80;;;19.50;99.90;19.80;97443.00;;;;4923048;28;86973;-57
2022/06/22 11:04:09;;;;;;;5.38;1.92;;;19.50;99.90;19.90;97440.00;;;;4965298;28;87178;-58
2022/06/22 11:07:17;;;;;;;6.50;1.83;;;19.60;99.90;19.90;97464.00;;;;4984231;28;87046;-55
2022/06/22 11:10:04;;;;;;;2.38;1.55;;;19.60;99.90;19.70;97449.00;;;;4955447;28;87029;-56
2022/06/22 11:12:42;;;;;;;2.47;2.00;;;19.50;99.90;19.70;97464.00;;;;4975005;28;87783;-56
2022/06/22 11:15:38;;;;;;;3.45;1.85;;;19.40;99.90;19.70;97449.00;;;;4981133;28;87337;-57
2022/06/22 11:19:06;;;;;;;8.20;1.67;;;19.40;99.90;19.90;97451.00;;;;4982792;28;88105;-58
2022/06/22 11:21:41;;;;;;;8.02;2.28;;;19.60;99.90;19.90;97455.00;;;;4982846;28;87073;-57
2022/06/22 11:24:13;;;;;;;6.85;1.70;;;19.70;99.90;20.00;97463.00;;;;4969295;28;88673;-56
2022/06/22 11:33:45;;;;;;;5.07;1.70;;;19.70;99.90;20.20;97482.00;;;;4983082;28;87369;-57
2022/06/22 11:36:59;;;;;;;3.40;1.33;;;19.80;99.90;20.30;97480.00;;;;4979060;28;87932;-59
2022/06/22 11:39:49;;;;;;;3.53;1.38;;;19.90;99.90;20.30;97495.00;;;;4983134;28;87394;-58
2022/06/22 11:42:30;;;;;;;3.60;1.60;;;19.90;99.90;20.30;97491.00;;;;4964110;28;86992;-59
2022/06/22 11:48:32;;;;;;;3.10;1.27;;;19.80;99.90;19.90;97484.00;;;;4978905;28;87761;-59
2022/06/22 11:51:33;;;;;;;5.15;1.38;;;19.60;99.90;20.00;97481.00;;;;4980537;28;87148;-55
2022/06/22 11:54:30;;;;;;;2.22;1.30;;;19.70;99.90;20.20;97487.00;;;;4961461;28;88177;-59
2022/06/22 11:56:57;;;;;;;4.25;1.50;;;19.90;99.90;20.30;97480.00;;;;4982200;28;87060;-58
2022/06/22 11:59:55;;;;;;;4.88;1.65;;;20.00;99.90;20.50;97483.00;;;;4981564;28;88784;-58
2022/06/22 12:02:59;;;;;;;5.53;1.50;;;20.20;99.90;20.50;97475.00;;;;4964872;28;87466;-58
2022/06/22 12:05:51;;;;;;;2.15;1.38;;;20.20;99.90;20.50;97480.00;;;;4979469;28;87060;-58
2022/06/22 12:08:53;;;;;;;4.50;1.25;;;20.20;99.90;20.70;97474.00;;;;4981737;28;87358;-58
2022/06/22 12:12:06;;;;;;;4.35;1.70;;;20.40;99.90;20.70;97485.00;;;;4981293;28;87718;-59
2022/06/22 12:17:42;;;;;;;3.58;1.50;;;20.40;99.90;20.60;97491.00;;;;4969634;28;86934;-59
2022/06/22 12:20:43;;;;;;;2.17;1.40;;;20.30;99.90;20.80;97498.00;;;;4964592;28;87551;-59
2022/06/22 12:23:24;;;;;;;3.58;1.50;;;20.40;99.90;20.80;97496.00;;;;4969325;28;88664;-58
2022/06/22 12:26:28;;;;;;;4.03;1.60;;;20.50;99.90;20.80;97478.00;;;;4975979;28;88437;-57
2022/06/22 12:29:20;;;;;;;6.28;1.40;;;20.40;99.90;20.60;97491.00;;;;4978490;28;87119;-57
2022/06/22 12:31:57;;;;;;;3.65;1.30;;;20.30;99.90;20.60;97509.00;;;;4977724;28;86999;-59
2022/06/22 12:34:41;;;;;;;6.63;1.42;;;20.40;99.90;20.40;97496.00;;;;4963887;28;87727;-57
2022/06/22 12:37:21;;;;;;;3.90;1.25;;;20.20;99.90;20.70;97498.00;;;;4979598;28;88506;-60